sensor_id;sensor_type;location;lat;lon;timestamp;P1;durP1;ratioP1;P2;durP2;ratioP2
26908;SDS011;14477;51.038;4.588;2023-10-09T00:00:11;3.15;;;1.90;;
26908;SDS011;14477;51.038;4.588;2023-10-09T00:03:17;2.47;;;1.60;;
26908;SDS011;14477;51.038;4.588;2023-10-09T00:05:43;3.17;;;1.75;;
26908;SDS011;14477;51.038;4.588;2023-10-09T00:08:09;4.00;;;1.70;;
26908;SDS011;14477;51.038;4.588;2023-10-09T00:10:36;3.50;;;1.80;;
26908;SDS011;14477;51.038;4.588;2023-10-09T00:13:11;4.68;;;1.95;;
26908;SDS011;14477;51.038;4.588;2023-10-09T00:15:37;2.97;;;1.57;;
26908;SDS011;14477;51.038;4.588;2023-10-09T00:18:04;3.38;;;1.60;;
26908;SDS011;14477;51.038;4.588;2023-10-09T00:20:37;4.70;;;2.20;;
26908;SDS011;14477;51.038;4.588;2023-10-09T00:23:08;4.35;;;1.92;;
26908;SDS011;14477;51.038;4.588;2023-10-09T00:25:48;3.75;;;1.90;;
26908;SDS011;14477;51.038;4.588;2023-10-09T00:28:35;3.23;;;1.63;;
26908;SDS011;14477;51.038;4.588;2023-10-09T00:31:03;4.43;;;1.90;;
26908;SDS011;14477;51.038;4.588;2023-10-09T00:33:35;3.40;;;2.05;;
26908;SDS011;14477;51.038;4.588;2023-10-09T00:36:02;3.70;;;1.80;;
26908;SDS011;14477;51.038;4.588;2023-10-09T00:38:35;3.30;;;1.80;;
26908;SDS011;14477;51.038;4.588;2023-10-09T00:41:05;2.87;;;1.67;;
26908;SDS011;14477;51.038;4.588;2023-10-09T00:43:33;3.47;;;1.70;;
26908;SDS011;14477;51.038;4.588;2023-10-09T00:46:02;3.65;;;1.90;;
26908;SDS011;14477;51.038;4.588;2023-10-09T00:48:30;4.25;;;1.90;;
26908;SDS011;14477;51.038;4.588;2023-10-09T00:50:59;3.13;;;1.70;;
26908;SDS011;14477;51.038;4.588;2023-10-09T00:53:26;3.10;;;1.67;;
26908;SDS011;14477;51.038;4.588;2023-10-09T00:56:01;3.58;;;1.90;;
26908;SDS011;14477;51.038;4.588;2023-10-09T00:58:44;3.53;;;1.90;;
26908;SDS011;14477;51.038;4.588;2023-10-09T01:01:14;2.65;;;1.55;;
26908;SDS011;14477;51.038;4.588;2023-10-09T01:03:41;3.60;;;1.88;;
26908;SDS011;14477;51.038;4.588;2023-10-09T01:06:09;4.30;;;2.00;;
26908;SDS011;14477;51.038;4.588;2023-10-09T01:08:37;4.07;;;1.77;;
26908;SDS011;14477;51.038;4.588;2023-10-09T01:11:07;3.85;;;1.95;;
26908;SDS011;14477;51.038;4.588;2023-10-09T01:13:46;4.85;;;2.00;;
26908;SDS011;14477;51.038;4.588;2023-10-09T01:16:13;3.17;;;1.95;;
26908;SDS011;14477;51.038;4.588;2023-10-09T01:18:43;3.60;;;1.63;;
26908;SDS011;14477;51.038;4.588;2023-10-09T01:21:10;3.58;;;1.90;;
26908;SDS011;14477;51.038;4.588;2023-10-09T01:23:41;3.67;;;1.90;;
26908;SDS011;14477;51.038;4.588;2023-10-09T01:26:26;2.97;;;1.85;;
26908;SDS011;14477;51.038;4.588;2023-10-09T01:28:52;3.67;;;1.90;;
26908;SDS011;14477;51.038;4.588;2023-10-09T01:31:23;3.88;;;1.90;;
26908;SDS011;14477;51.038;4.588;2023-10-09T01:33:51;3.88;;;1.73;;
26908;SDS011;14477;51.038;4.588;2023-10-09T01:36:18;3.03;;;1.73;;
26908;SDS011;14477;51.038;4.588;2023-10-09T01:38:57;3.47;;;1.80;;
26908;SDS011;14477;51.038;4.588;2023-10-09T01:41:24;3.57;;;1.73;;
26908;SDS011;14477;51.038;4.588;2023-10-09T01:43:50;3.55;;;1.90;;
26908;SDS011;14477;51.038;4.588;2023-10-09T01:46:21;3.47;;;1.77;;
26908;SDS011;14477;51.038;4.588;2023-10-09T01:48:48;3.45;;;1.90;;
26908;SDS011;14477;51.038;4.588;2023-10-09T01:51:14;3.67;;;2.00;;
26908;SDS011;14477;51.038;4.588;2023-10-09T01:53:43;3.83;;;2.00;;
26908;SDS011;14477;51.038;4.588;2023-10-09T01:56:10;2.80;;;1.55;;
26908;SDS011;14477;51.038;4.588;2023-10-09T01:58:43;3.47;;;1.53;;
26908;SDS011;14477;51.038;4.588;2023-10-09T02:01:15;2.60;;;1.40;;
26908;SDS011;14477;51.038;4.588;2023-10-09T02:03:41;3.90;;;1.70;;
26908;SDS011;14477;51.038;4.588;2023-10-09T02:06:08;4.72;;;1.80;;
26908;SDS011;14477;51.038;4.588;2023-10-09T02:08:54;4.03;;;1.63;;
26908;SDS011;14477;51.038;4.588;2023-10-09T02:11:21;4.03;;;1.73;;
26908;SDS011;14477;51.038;4.588;2023-10-09T02:14:06;3.38;;;1.70;;
26908;SDS011;14477;51.038;4.588;2023-10-09T02:16:48;5.82;;;1.85;;
26908;SDS011;14477;51.038;4.588;2023-10-09T02:19:32;2.97;;;1.70;;
26908;SDS011;14477;51.038;4.588;2023-10-09T02:22:03;3.53;;;1.80;;
26908;SDS011;14477;51.038;4.588;2023-10-09T02:24:38;4.28;;;1.85;;
26908;SDS011;14477;51.038;4.588;2023-10-09T02:27:18;3.85;;;1.70;;
26908;SDS011;14477;51.038;4.588;2023-10-09T02:30:06;3.35;;;1.60;;
26908;SDS011;14477;51.038;4.588;2023-10-09T02:32:40;3.97;;;1.80;;
26908;SDS011;14477;51.038;4.588;2023-10-09T02:35:08;2.90;;;1.77;;
26908;SDS011;14477;51.038;4.588;2023-10-09T02:37:44;2.90;;;1.60;;
26908;SDS011;14477;51.038;4.588;2023-10-09T02:40:12;2.47;;;1.58;;
26908;SDS011;14477;51.038;4.588;2023-10-09T02:42:48;4.32;;;1.77;;
26908;SDS011;14477;51.038;4.588;2023-10-09T02:45:15;2.92;;;1.65;;
26908;SDS011;14477;51.038;4.588;2023-10-09T02:47:42;3.73;;;1.83;;
26908;SDS011;14477;51.038;4.588;2023-10-09T02:50:13;3.88;;;2.03;;
26908;SDS011;14477;51.038;4.588;2023-10-09T02:52:46;3.53;;;1.80;;
26908;SDS011;14477;51.038;4.588;2023-10-09T02:55:17;4.07;;;1.88;;
26908;SDS011;14477;51.038;4.588;2023-10-09T02:57:51;3.45;;;1.73;;
26908;SDS011;14477;51.038;4.588;2023-10-09T03:00:21;3.30;;;1.70;;
26908;SDS011;14477;51.038;4.588;2023-10-09T03:02:54;4.22;;;1.63;;
26908;SDS011;14477;51.038;4.588;2023-10-09T03:05:23;4.10;;;1.98;;
26908;SDS011;14477;51.038;4.588;2023-10-09T03:07:52;3.38;;;1.73;;
26908;SDS011;14477;51.038;4.588;2023-10-09T03:10:21;4.07;;;1.92;;
26908;SDS011;14477;51.038;4.588;2023-10-09T03:12:47;3.17;;;1.80;;
26908;SDS011;14477;51.038;4.588;2023-10-09T03:15:21;4.05;;;2.00;;
26908;SDS011;14477;51.038;4.588;2023-10-09T03:17:47;3.85;;;2.00;;
26908;SDS011;14477;51.038;4.588;2023-10-09T03:20:13;3.67;;;1.90;;
26908;SDS011;14477;51.038;4.588;2023-10-09T03:22:40;3.53;;;1.90;;
26908;SDS011;14477;51.038;4.588;2023-10-09T03:25:07;3.80;;;1.70;;
26908;SDS011;14477;51.038;4.588;2023-10-09T03:27:39;3.47;;;1.70;;
26908;SDS011;14477;51.038;4.588;2023-10-09T03:30:12;3.42;;;1.85;;
26908;SDS011;14477;51.038;4.588;2023-10-09T03:32:47;2.67;;;1.60;;
26908;SDS011;14477;51.038;4.588;2023-10-09T03:35:16;3.38;;;1.83;;
26908;SDS011;14477;51.038;4.588;2023-10-09T03:37:50;3.03;;;2.10;;
26908;SDS011;14477;51.038;4.588;2023-10-09T03:40:21;3.42;;;1.80;;
26908;SDS011;14477;51.038;4.588;2023-10-09T03:42:48;3.65;;;1.90;;
26908;SDS011;14477;51.038;4.588;2023-10-09T03:45:14;3.72;;;1.95;;
26908;SDS011;14477;51.038;4.588;2023-10-09T03:47:53;3.42;;;2.00;;
26908;SDS011;14477;51.038;4.588;2023-10-09T03:50:22;5.07;;;2.13;;
26908;SDS011;14477;51.038;4.588;2023-10-09T03:53:04;3.78;;;1.85;;
26908;SDS011;14477;51.038;4.588;2023-10-09T03:55:36;3.85;;;1.85;;
26908;SDS011;14477;51.038;4.588;2023-10-09T03:58:07;2.58;;;1.77;;
26908;SDS011;14477;51.038;4.588;2023-10-09T04:00:44;3.10;;;1.80;;
26908;SDS011;14477;51.038;4.588;2023-10-09T04:03:10;3.37;;;2.13;;
26908;SDS011;14477;51.038;4.588;2023-10-09T04:05:36;4.18;;;2.00;;
26908;SDS011;14477;51.038;4.588;2023-10-09T04:08:06;3.38;;;1.88;;
26908;SDS011;14477;51.038;4.588;2023-10-09T04:10:38;4.03;;;2.20;;
26908;SDS011;14477;51.038;4.588;2023-10-09T04:13:33;3.55;;;1.98;;
26908;SDS011;14477;51.038;4.588;2023-10-09T04:16:00;3.30;;;1.93;;
26908;SDS011;14477;51.038;4.588;2023-10-09T04:18:37;3.58;;;2.08;;
26908;SDS011;14477;51.038;4.588;2023-10-09T04:21:05;2.55;;;1.50;;
26908;SDS011;14477;51.038;4.588;2023-10-09T04:23:41;3.08;;;1.90;;
26908;SDS011;14477;51.038;4.588;2023-10-09T04:26:36;3.78;;;1.95;;
26908;SDS011;14477;51.038;4.588;2023-10-09T04:29:03;3.50;;;2.03;;
26908;SDS011;14477;51.038;4.588;2023-10-09T04:31:29;3.95;;;2.03;;
26908;SDS011;14477;51.038;4.588;2023-10-09T04:34:02;3.28;;;1.92;;
26908;SDS011;14477;51.038;4.588;2023-10-09T04:36:50;4.97;;;2.13;;
26908;SDS011;14477;51.038;4.588;2023-10-09T04:39:25;4.03;;;2.00;;
26908;SDS011;14477;51.038;4.588;2023-10-09T04:41:55;4.13;;;2.00;;
26908;SDS011;14477;51.038;4.588;2023-10-09T04:44:40;4.20;;;2.20;;
26908;SDS011;14477;51.038;4.588;2023-10-09T04:47:31;3.80;;;2.40;;
26908;SDS011;14477;51.038;4.588;2023-10-09T04:50:10;3.40;;;1.80;;
26908;SDS011;14477;51.038;4.588;2023-10-09T04:52:39;3.63;;;2.22;;
26908;SDS011;14477;51.038;4.588;2023-10-09T04:55:06;3.43;;;2.07;;
26908;SDS011;14477;51.038;4.588;2023-10-09T04:57:36;3.25;;;2.05;;
26908;SDS011;14477;51.038;4.588;2023-10-09T05:00:09;4.07;;;2.25;;
26908;SDS011;14477;51.038;4.588;2023-10-09T05:02:51;3.40;;;1.90;;
26908;SDS011;14477;51.038;4.588;2023-10-09T05:05:25;3.85;;;2.05;;
26908;SDS011;14477;51.038;4.588;2023-10-09T05:10:47;3.33;;;2.05;;
26908;SDS011;14477;51.038;4.588;2023-10-09T05:13:26;3.95;;;2.40;;
26908;SDS011;14477;51.038;4.588;2023-10-09T05:16:22;4.13;;;2.20;;
26908;SDS011;14477;51.038;4.588;2023-10-09T05:18:50;4.30;;;1.98;;
26908;SDS011;14477;51.038;4.588;2023-10-09T05:21:46;4.30;;;2.20;;
26908;SDS011;14477;51.038;4.588;2023-10-09T05:24:12;4.13;;;2.28;;
26908;SDS011;14477;51.038;4.588;2023-10-09T05:26:45;4.03;;;1.98;;
26908;SDS011;14477;51.038;4.588;2023-10-09T05:29:19;4.67;;;2.27;;
26908;SDS011;14477;51.038;4.588;2023-10-09T05:31:59;3.97;;;2.03;;
26908;SDS011;14477;51.038;4.588;2023-10-09T05:34:37;4.63;;;2.30;;
26908;SDS011;14477;51.038;4.588;2023-10-09T05:37:23;4.75;;;2.30;;
26908;SDS011;14477;51.038;4.588;2023-10-09T05:39:50;5.10;;;2.80;;
26908;SDS011;14477;51.038;4.588;2023-10-09T05:42:25;4.63;;;2.50;;
26908;SDS011;14477;51.038;4.588;2023-10-09T05:45:07;5.38;;;2.50;;
26908;SDS011;14477;51.038;4.588;2023-10-09T05:50:28;3.97;;;2.40;;
26908;SDS011;14477;51.038;4.588;2023-10-09T05:52:55;3.70;;;2.50;;
26908;SDS011;14477;51.038;4.588;2023-10-09T05:55:30;5.57;;;3.00;;
26908;SDS011;14477;51.038;4.588;2023-10-09T05:58:15;4.78;;;2.45;;
26908;SDS011;14477;51.038;4.588;2023-10-09T06:00:59;6.57;;;2.67;;
26908;SDS011;14477;51.038;4.588;2023-10-09T06:04:00;4.68;;;2.50;;
26908;SDS011;14477;51.038;4.588;2023-10-09T06:06:42;3.88;;;2.30;;
26908;SDS011;14477;51.038;4.588;2023-10-09T06:09:10;4.70;;;2.47;;
26908;SDS011;14477;51.038;4.588;2023-10-09T06:11:40;4.38;;;2.35;;
26908;SDS011;14477;51.038;4.588;2023-10-09T06:14:21;4.63;;;2.50;;
26908;SDS011;14477;51.038;4.588;2023-10-09T06:17:10;4.53;;;2.70;;
26908;SDS011;14477;51.038;4.588;2023-10-09T06:19:36;5.00;;;2.80;;
26908;SDS011;14477;51.038;4.588;2023-10-09T06:22:09;5.40;;;2.85;;
26908;SDS011;14477;51.038;4.588;2023-10-09T06:24:38;4.45;;;2.83;;
26908;SDS011;14477;51.038;4.588;2023-10-09T06:27:08;4.05;;;2.63;;
26908;SDS011;14477;51.038;4.588;2023-10-09T06:29:38;4.28;;;2.60;;
26908;SDS011;14477;51.038;4.588;2023-10-09T06:32:13;5.50;;;2.77;;
26908;SDS011;14477;51.038;4.588;2023-10-09T06:34:52;4.72;;;2.65;;
26908;SDS011;14477;51.038;4.588;2023-10-09T06:38:02;4.15;;;2.40;;
26908;SDS011;14477;51.038;4.588;2023-10-09T06:40:35;3.70;;;2.47;;
26908;SDS011;14477;51.038;4.588;2023-10-09T06:43:22;4.10;;;2.40;;
26908;SDS011;14477;51.038;4.588;2023-10-09T06:45:52;5.00;;;2.35;;
26908;SDS011;14477;51.038;4.588;2023-10-09T06:48:22;4.50;;;2.50;;
26908;SDS011;14477;51.038;4.588;2023-10-09T06:51:03;4.50;;;2.58;;
26908;SDS011;14477;51.038;4.588;2023-10-09T06:53:44;5.13;;;2.67;;
26908;SDS011;14477;51.038;4.588;2023-10-09T06:56:28;4.80;;;2.67;;
26908;SDS011;14477;51.038;4.588;2023-10-09T06:58:54;5.07;;;2.40;;
26908;SDS011;14477;51.038;4.588;2023-10-09T07:01:40;5.90;;;2.47;;
26908;SDS011;14477;51.038;4.588;2023-10-09T07:04:12;4.35;;;2.70;;
26908;SDS011;14477;51.038;4.588;2023-10-09T07:06:48;4.32;;;2.83;;
26908;SDS011;14477;51.038;4.588;2023-10-09T07:09:15;5.63;;;2.70;;
26908;SDS011;14477;51.038;4.588;2023-10-09T07:11:53;5.32;;;2.50;;
26908;SDS011;14477;51.038;4.588;2023-10-09T07:14:22;5.63;;;2.45;;
26908;SDS011;14477;51.038;4.588;2023-10-09T07:17:17;5.15;;;2.67;;
26908;SDS011;14477;51.038;4.588;2023-10-09T07:19:58;4.35;;;2.60;;
26908;SDS011;14477;51.038;4.588;2023-10-09T07:22:36;4.13;;;2.40;;
26908;SDS011;14477;51.038;4.588;2023-10-09T07:25:17;4.50;;;2.70;;
26908;SDS011;14477;51.038;4.588;2023-10-09T07:28:05;4.28;;;2.50;;
26908;SDS011;14477;51.038;4.588;2023-10-09T07:30:44;5.90;;;2.95;;
26908;SDS011;14477;51.038;4.588;2023-10-09T07:33:11;5.68;;;2.78;;
26908;SDS011;14477;51.038;4.588;2023-10-09T07:35:47;4.80;;;2.63;;
26908;SDS011;14477;51.038;4.588;2023-10-09T07:38:16;5.07;;;2.90;;
26908;SDS011;14477;51.038;4.588;2023-10-09T07:41:00;4.82;;;2.80;;
26908;SDS011;14477;51.038;4.588;2023-10-09T07:43:28;5.78;;;2.90;;
26908;SDS011;14477;51.038;4.588;2023-10-09T07:46:01;5.95;;;2.72;;
26908;SDS011;14477;51.038;4.588;2023-10-09T07:48:46;7.20;;;3.13;;
26908;SDS011;14477;51.038;4.588;2023-10-09T07:51:20;4.70;;;2.70;;
26908;SDS011;14477;51.038;4.588;2023-10-09T07:53:56;5.05;;;3.13;;
26908;SDS011;14477;51.038;4.588;2023-10-09T07:56:25;5.35;;;3.20;;
26908;SDS011;14477;51.038;4.588;2023-10-09T07:58:55;6.35;;;3.05;;
26908;SDS011;14477;51.038;4.588;2023-10-09T08:01:25;5.83;;;3.50;;
26908;SDS011;14477;51.038;4.588;2023-10-09T08:04:01;5.63;;;3.20;;
26908;SDS011;14477;51.038;4.588;2023-10-09T08:06:36;5.35;;;3.15;;
26908;SDS011;14477;51.038;4.588;2023-10-09T08:09:10;6.10;;;3.42;;
26908;SDS011;14477;51.038;4.588;2023-10-09T08:14:12;5.93;;;3.50;;
26908;SDS011;14477;51.038;4.588;2023-10-09T08:16:47;9.35;;;3.58;;
26908;SDS011;14477;51.038;4.588;2023-10-09T08:19:16;5.95;;;3.22;;
26908;SDS011;14477;51.038;4.588;2023-10-09T08:21:58;5.68;;;3.30;;
26908;SDS011;14477;51.038;4.588;2023-10-09T08:25:02;4.85;;;3.15;;
26908;SDS011;14477;51.038;4.588;2023-10-09T08:27:29;5.50;;;2.97;;
26908;SDS011;14477;51.038;4.588;2023-10-09T08:29:59;5.28;;;3.20;;
26908;SDS011;14477;51.038;4.588;2023-10-09T08:32:43;5.40;;;3.20;;
26908;SDS011;14477;51.038;4.588;2023-10-09T08:38:11;4.70;;;2.90;;
26908;SDS011;14477;51.038;4.588;2023-10-09T08:40:38;7.07;;;3.00;;
26908;SDS011;14477;51.038;4.588;2023-10-09T08:48:17;5.13;;;3.10;;
26908;SDS011;14477;51.038;4.588;2023-10-09T08:50:48;5.68;;;3.33;;
26908;SDS011;14477;51.038;4.588;2023-10-09T08:53:19;5.68;;;3.15;;
26908;SDS011;14477;51.038;4.588;2023-10-09T08:55:46;6.60;;;3.22;;
26908;SDS011;14477;51.038;4.588;2023-10-09T08:58:15;6.93;;;3.25;;
26908;SDS011;14477;51.038;4.588;2023-10-09T09:00:51;5.27;;;3.13;;
26908;SDS011;14477;51.038;4.588;2023-10-09T09:03:20;5.43;;;3.10;;
26908;SDS011;14477;51.038;4.588;2023-10-09T09:06:00;6.25;;;3.15;;
26908;SDS011;14477;51.038;4.588;2023-10-09T09:08:27;5.22;;;3.20;;
26908;SDS011;14477;51.038;4.588;2023-10-09T09:10:57;5.38;;;2.92;;
26908;SDS011;14477;51.038;4.588;2023-10-09T09:16:19;6.00;;;3.22;;
26908;SDS011;14477;51.038;4.588;2023-10-09T09:18:56;5.57;;;3.38;;
26908;SDS011;14477;51.038;4.588;2023-10-09T09:21:28;6.40;;;3.35;;
26908;SDS011;14477;51.038;4.588;2023-10-09T09:23:59;6.40;;;3.20;;
26908;SDS011;14477;51.038;4.588;2023-10-09T09:26:40;5.30;;;3.20;;
26908;SDS011;14477;51.038;4.588;2023-10-09T09:29:13;5.35;;;3.17;;
26908;SDS011;14477;51.038;4.588;2023-10-09T09:31:55;5.57;;;3.20;;
26908;SDS011;14477;51.038;4.588;2023-10-09T09:34:22;5.43;;;3.22;;
26908;SDS011;14477;51.038;4.588;2023-10-09T09:36:55;4.53;;;2.95;;
26908;SDS011;14477;51.038;4.588;2023-10-09T09:39:23;5.53;;;3.17;;
26908;SDS011;14477;51.038;4.588;2023-10-09T09:41:55;6.85;;;3.95;;
26908;SDS011;14477;51.038;4.588;2023-10-09T09:44:38;5.88;;;3.50;;
26908;SDS011;14477;51.038;4.588;2023-10-09T09:47:13;5.95;;;3.10;;
26908;SDS011;14477;51.038;4.588;2023-10-09T09:49:52;5.85;;;3.47;;
26908;SDS011;14477;51.038;4.588;2023-10-09T09:52:33;7.90;;;3.23;;
26908;SDS011;14477;51.038;4.588;2023-10-09T09:55:08;6.47;;;3.58;;
26908;SDS011;14477;51.038;4.588;2023-10-09T09:57:46;6.32;;;3.20;;
26908;SDS011;14477;51.038;4.588;2023-10-09T10:00:16;5.22;;;2.83;;
26908;SDS011;14477;51.038;4.588;2023-10-09T10:03:10;4.95;;;3.25;;
26908;SDS011;14477;51.038;4.588;2023-10-09T10:05:39;5.53;;;3.37;;
26908;SDS011;14477;51.038;4.588;2023-10-09T10:08:08;5.03;;;3.05;;
26908;SDS011;14477;51.038;4.588;2023-10-09T10:10:39;5.32;;;2.95;;
26908;SDS011;14477;51.038;4.588;2023-10-09T10:13:54;4.95;;;3.05;;
26908;SDS011;14477;51.038;4.588;2023-10-09T10:19:01;5.47;;;3.07;;
26908;SDS011;14477;51.038;4.588;2023-10-09T10:21:41;4.85;;;2.83;;
26908;SDS011;14477;51.038;4.588;2023-10-09T10:29:35;4.80;;;2.88;;
26908;SDS011;14477;51.038;4.588;2023-10-09T10:32:03;6.70;;;3.43;;
26908;SDS011;14477;51.038;4.588;2023-10-09T10:34:52;6.13;;;3.17;;
26908;SDS011;14477;51.038;4.588;2023-10-09T10:37:42;5.20;;;3.50;;
26908;SDS011;14477;51.038;4.588;2023-10-09T10:40:22;6.03;;;3.30;;
26908;SDS011;14477;51.038;4.588;2023-10-09T10:43:18;5.95;;;3.22;;
26908;SDS011;14477;51.038;4.588;2023-10-09T10:46:05;6.70;;;3.20;;
26908;SDS011;14477;51.038;4.588;2023-10-09T10:48:49;6.30;;;3.17;;
26908;SDS011;14477;51.038;4.588;2023-10-09T10:51:24;5.75;;;3.15;;
26908;SDS011;14477;51.038;4.588;2023-10-09T10:54:05;5.13;;;3.00;;
26908;SDS011;14477;51.038;4.588;2023-10-09T10:56:50;5.07;;;2.88;;
26908;SDS011;14477;51.038;4.588;2023-10-09T10:59:17;6.20;;;3.07;;
26908;SDS011;14477;51.038;4.588;2023-10-09T11:01:52;6.28;;;3.30;;
26908;SDS011;14477;51.038;4.588;2023-10-09T11:04:24;5.25;;;3.22;;
26908;SDS011;14477;51.038;4.588;2023-10-09T11:07:00;7.07;;;3.72;;
26908;SDS011;14477;51.038;4.588;2023-10-09T11:09:46;4.75;;;3.03;;
26908;SDS011;14477;51.038;4.588;2023-10-09T11:15:07;5.53;;;3.05;;
26908;SDS011;14477;51.038;4.588;2023-10-09T11:18:13;5.63;;;3.17;;
26908;SDS011;14477;51.038;4.588;2023-10-09T11:20:52;5.82;;;3.08;;
26908;SDS011;14477;51.038;4.588;2023-10-09T11:23:28;5.65;;;3.17;;
26908;SDS011;14477;51.038;4.588;2023-10-09T11:26:03;5.63;;;3.10;;
26908;SDS011;14477;51.038;4.588;2023-10-09T11:29:07;6.10;;;3.53;;
26908;SDS011;14477;51.038;4.588;2023-10-09T11:31:57;6.50;;;3.90;;
26908;SDS011;14477;51.038;4.588;2023-10-09T11:34:31;7.00;;;3.25;;
26908;SDS011;14477;51.038;4.588;2023-10-09T11:37:01;5.07;;;3.22;;
26908;SDS011;14477;51.038;4.588;2023-10-09T11:39:53;5.33;;;3.27;;
26908;SDS011;14477;51.038;4.588;2023-10-09T11:42:21;6.85;;;3.35;;
26908;SDS011;14477;51.038;4.588;2023-10-09T11:45:04;6.40;;;3.13;;
26908;SDS011;14477;51.038;4.588;2023-10-09T11:47:48;6.75;;;3.28;;
26908;SDS011;14477;51.038;4.588;2023-10-09T11:50:44;6.78;;;3.58;;
26908;SDS011;14477;51.038;4.588;2023-10-09T11:53:17;6.10;;;3.13;;
26908;SDS011;14477;51.038;4.588;2023-10-09T11:55:47;5.95;;;3.30;;
26908;SDS011;14477;51.038;4.588;2023-10-09T11:58:17;4.97;;;3.00;;
26908;SDS011;14477;51.038;4.588;2023-10-09T12:03:31;5.40;;;3.20;;
26908;SDS011;14477;51.038;4.588;2023-10-09T12:06:01;6.60;;;3.47;;
26908;SDS011;14477;51.038;4.588;2023-10-09T12:08:33;7.20;;;3.60;;
26908;SDS011;14477;51.038;4.588;2023-10-09T12:11:01;6.13;;;3.22;;
26908;SDS011;14477;51.038;4.588;2023-10-09T12:13:33;5.57;;;3.40;;
26908;SDS011;14477;51.038;4.588;2023-10-09T12:15:59;6.10;;;3.70;;
26908;SDS011;14477;51.038;4.588;2023-10-09T12:18:25;6.77;;;3.60;;
26908;SDS011;14477;51.038;4.588;2023-10-09T12:20:51;6.75;;;3.42;;
26908;SDS011;14477;51.038;4.588;2023-10-09T12:23:18;7.22;;;3.17;;
26908;SDS011;14477;51.038;4.588;2023-10-09T12:25:45;5.68;;;3.70;;
26908;SDS011;14477;51.038;4.588;2023-10-09T12:28:11;6.33;;;3.80;;
26908;SDS011;14477;51.038;4.588;2023-10-09T12:30:37;6.93;;;3.88;;
26908;SDS011;14477;51.038;4.588;2023-10-09T12:33:07;7.78;;;3.75;;
26908;SDS011;14477;51.038;4.588;2023-10-09T12:35:37;6.25;;;3.80;;
26908;SDS011;14477;51.038;4.588;2023-10-09T12:38:04;7.47;;;3.60;;
26908;SDS011;14477;51.038;4.588;2023-10-09T12:40:35;6.67;;;3.43;;
26908;SDS011;14477;51.038;4.588;2023-10-09T12:43:02;8.20;;;3.92;;
26908;SDS011;14477;51.038;4.588;2023-10-09T12:45:28;7.43;;;4.28;;
26908;SDS011;14477;51.038;4.588;2023-10-09T12:48:00;6.82;;;4.00;;
26908;SDS011;14477;51.038;4.588;2023-10-09T12:50:29;6.50;;;3.67;;
26908;SDS011;14477;51.038;4.588;2023-10-09T12:52:58;7.40;;;4.10;;
26908;SDS011;14477;51.038;4.588;2023-10-09T12:55:28;6.68;;;4.10;;
26908;SDS011;14477;51.038;4.588;2023-10-09T12:58:00;7.78;;;4.30;;
26908;SDS011;14477;51.038;4.588;2023-10-09T13:00:33;7.82;;;4.50;;
26908;SDS011;14477;51.038;4.588;2023-10-09T13:03:02;7.13;;;4.43;;
26908;SDS011;14477;51.038;4.588;2023-10-09T13:05:52;6.90;;;4.28;;
26908;SDS011;14477;51.038;4.588;2023-10-09T13:08:22;6.82;;;4.30;;
26908;SDS011;14477;51.038;4.588;2023-10-09T13:10:56;7.60;;;4.05;;
26908;SDS011;14477;51.038;4.588;2023-10-09T13:13:26;8.57;;;4.57;;
26908;SDS011;14477;51.038;4.588;2023-10-09T13:16:04;7.27;;;4.30;;
26908;SDS011;14477;51.038;4.588;2023-10-09T13:18:36;7.43;;;4.40;;
26908;SDS011;14477;51.038;4.588;2023-10-09T13:21:03;7.95;;;4.30;;
26908;SDS011;14477;51.038;4.588;2023-10-09T13:23:30;6.97;;;4.40;;
26908;SDS011;14477;51.038;4.588;2023-10-09T13:26:07;7.68;;;4.32;;
26908;SDS011;14477;51.038;4.588;2023-10-09T13:28:52;7.33;;;3.97;;
26908;SDS011;14477;51.038;4.588;2023-10-09T13:31:18;9.00;;;4.60;;
26908;SDS011;14477;51.038;4.588;2023-10-09T13:33:46;7.63;;;4.88;;
26908;SDS011;14477;51.038;4.588;2023-10-09T13:36:13;8.02;;;4.80;;
26908;SDS011;14477;51.038;4.588;2023-10-09T13:38:47;7.68;;;4.05;;
26908;SDS011;14477;51.038;4.588;2023-10-09T13:41:13;6.63;;;4.17;;
26908;SDS011;14477;51.038;4.588;2023-10-09T13:43:40;8.90;;;4.70;;
26908;SDS011;14477;51.038;4.588;2023-10-09T13:46:06;7.57;;;4.47;;
26908;SDS011;14477;51.038;4.588;2023-10-09T13:48:33;8.95;;;4.45;;
26908;SDS011;14477;51.038;4.588;2023-10-09T13:51:06;7.95;;;4.60;;
26908;SDS011;14477;51.038;4.588;2023-10-09T13:53:39;9.20;;;4.33;;
26908;SDS011;14477;51.038;4.588;2023-10-09T13:56:10;7.70;;;4.22;;
26908;SDS011;14477;51.038;4.588;2023-10-09T13:58:43;8.45;;;4.40;;
26908;SDS011;14477;51.038;4.588;2023-10-09T14:01:14;7.60;;;4.70;;
26908;SDS011;14477;51.038;4.588;2023-10-09T14:04:01;7.43;;;4.20;;
26908;SDS011;14477;51.038;4.588;2023-10-09T14:06:27;8.43;;;4.60;;
26908;SDS011;14477;51.038;4.588;2023-10-09T14:08:56;7.63;;;4.43;;
26908;SDS011;14477;51.038;4.588;2023-10-09T14:11:34;6.60;;;4.10;;
26908;SDS011;14477;51.038;4.588;2023-10-09T14:14:05;7.65;;;4.15;;
26908;SDS011;14477;51.038;4.588;2023-10-09T14:16:38;7.63;;;4.30;;
26908;SDS011;14477;51.038;4.588;2023-10-09T14:19:08;8.13;;;4.70;;
26908;SDS011;14477;51.038;4.588;2023-10-09T14:21:38;7.75;;;4.30;;
26908;SDS011;14477;51.038;4.588;2023-10-09T14:24:06;7.38;;;4.25;;
26908;SDS011;14477;51.038;4.588;2023-10-09T14:26:43;8.70;;;4.30;;
26908;SDS011;14477;51.038;4.588;2023-10-09T14:29:16;7.15;;;4.30;;
26908;SDS011;14477;51.038;4.588;2023-10-09T14:31:43;7.67;;;4.27;;
26908;SDS011;14477;51.038;4.588;2023-10-09T14:34:14;7.53;;;4.38;;
26908;SDS011;14477;51.038;4.588;2023-10-09T14:36:40;7.72;;;4.30;;
26908;SDS011;14477;51.038;4.588;2023-10-09T14:39:09;8.50;;;4.47;;
26908;SDS011;14477;51.038;4.588;2023-10-09T14:41:38;6.38;;;3.80;;
26908;SDS011;14477;51.038;4.588;2023-10-09T14:44:05;9.50;;;4.57;;
26908;SDS011;14477;51.038;4.588;2023-10-09T14:46:31;9.00;;;4.47;;
26908;SDS011;14477;51.038;4.588;2023-10-09T14:48:57;8.80;;;4.73;;
26908;SDS011;14477;51.038;4.588;2023-10-09T14:51:25;9.82;;;4.75;;
26908;SDS011;14477;51.038;4.588;2023-10-09T14:53:55;6.97;;;4.32;;
26908;SDS011;14477;51.038;4.588;2023-10-09T14:56:26;7.95;;;4.65;;
26908;SDS011;14477;51.038;4.588;2023-10-09T14:58:59;8.00;;;4.23;;
26908;SDS011;14477;51.038;4.588;2023-10-09T15:01:25;11.80;;;4.53;;
26908;SDS011;14477;51.038;4.588;2023-10-09T15:03:54;8.23;;;4.57;;
26908;SDS011;14477;51.038;4.588;2023-10-09T15:06:23;7.78;;;4.45;;
26908;SDS011;14477;51.038;4.588;2023-10-09T15:08:49;8.48;;;4.30;;
26908;SDS011;14477;51.038;4.588;2023-10-09T15:11:15;7.97;;;4.40;;
26908;SDS011;14477;51.038;4.588;2023-10-09T15:13:41;8.05;;;4.20;;
26908;SDS011;14477;51.038;4.588;2023-10-09T15:16:07;7.90;;;4.40;;
26908;SDS011;14477;51.038;4.588;2023-10-09T15:18:32;8.25;;;4.47;;
26908;SDS011;14477;51.038;4.588;2023-10-09T15:20:59;7.70;;;4.60;;
26908;SDS011;14477;51.038;4.588;2023-10-09T15:23:25;7.68;;;4.20;;
26908;SDS011;14477;51.038;4.588;2023-10-09T15:25:52;6.93;;;4.30;;
26908;SDS011;14477;51.038;4.588;2023-10-09T15:28:21;8.00;;;4.17;;
26908;SDS011;14477;51.038;4.588;2023-10-09T15:30:48;8.07;;;4.55;;
26908;SDS011;14477;51.038;4.588;2023-10-09T15:33:16;6.50;;;3.88;;
26908;SDS011;14477;51.038;4.588;2023-10-09T15:35:44;8.67;;;4.70;;
26908;SDS011;14477;51.038;4.588;2023-10-09T15:38:14;7.00;;;4.05;;
26908;SDS011;14477;51.038;4.588;2023-10-09T15:40:41;7.47;;;3.97;;
26908;SDS011;14477;51.038;4.588;2023-10-09T15:43:09;7.80;;;4.22;;
26908;SDS011;14477;51.038;4.588;2023-10-09T15:45:41;7.75;;;4.03;;
26908;SDS011;14477;51.038;4.588;2023-10-09T15:48:10;7.40;;;4.30;;
26908;SDS011;14477;51.038;4.588;2023-10-09T15:50:37;9.00;;;4.45;;
26908;SDS011;14477;51.038;4.588;2023-10-09T15:53:05;8.38;;;4.13;;
26908;SDS011;14477;51.038;4.588;2023-10-09T15:55:31;6.82;;;4.20;;
26908;SDS011;14477;51.038;4.588;2023-10-09T15:57:59;10.25;;;4.53;;